Weather observations for the past three days for
Kenai, Kenai Municipal Airport
Imperial (Metric)
Date Time (akdt) Wind (mph) Vis. (mi.) Weather Sky Cond. Temperature (ºF) Relative Humidity Wind Chill (°F) Heat Index (°F) Pressure Precipitation (in)
Air Dwpt 6 hour altimeter (in) sea level (mb) 1 hr 3 hr 6 hr
Max. Min.
06 14:53 SW 13 10.00 Overcast FEW019 BKN026 OVC075 44.1 36 73% 38 29.93 1013.8
06 13:53 S 7 10.00 Overcast OVC015 42.1 36 79% 38 29.93 1013.6
06 12:53 SW 7 10.00 Overcast OVC021 44.1 37.9 79% 41 29.91 1013.2
06 11:53 S 5 10.00 Overcast OVC018 43 37 80% 41 29.9 1012.6
06 10:53 S 5 10.00 Overcast OVC018 42.1 37 82% 40 29.89 1012.2
06 09:53 S 6 10.00 Overcast BKN012 OVC021 41 37 41 39 86% 38 29.88 1011.9
06 08:53 S 6 10.00 Overcast FEW008 BKN016 OVC021 41 37.9 89% 38 29.87 1011.6
06 07:53 S 5 10.00 Overcast OVC020 39.9 37.9 93% 37 29.85 1011.2
06 06:53 SE 5 10.00 Overcast OVC022 39 37 93% 36 29.84 1010.7
06 05:53 SE 6 0.00 Light Rain OVC015 39 37 93% 35 29.84 1010.6
06 04:53 SE 6 0.00 Light Rain BKN019 OVC024 39 37.9 96% 35 29.83 1010.3
06 03:53 SE 7 0.00 Light Rain OVC014 39.9 37.9 41 39.9 93% 36 29.82 1010.2 0.01
06 02:53 S 7 0.00 Light Rain BKN015 OVC022 39.9 37.9 93% 36 29.82 1010.0 0.01
06 01:53 S 8 0.00 Light Rain OVC036 39.9 37.9 93% 35 29.82 1009.9
06 00:53 S 13 0.00 Light Rain OVC041 41 37.9 89% 34 29.8 1009.5
05 23:53 S 12 0.00 Light Rain OVC048 39.9 37 89% 34 29.79 1009.1
05 22:53 SW 15 0.00 Overcast FEW042 OVC060 39.9 36 86% 32 29.78 1008.7
05 21:53 S 6 10.00 Overcast OVC047 39.9 35.1 54 39.9 83% 36 29.76 1008.1
05 20:53 SW 10 10.00 Overcast OVC049 41 35.1 79% 35 29.74 1007.4
05 19:53 W 7 10.00 Overcast OVC050 48 35.1 61% 45 29.72 1006.6
05 18:53 W 9 10.00 Overcast OVC055 50 30 46% 47 29.7 1005.9
05 17:53 NW 6 10.00 Overcast FEW060 OVC085 52 30 43% 29.69 1005.5
05 16:53 NW 8 10.00 Overcast OVC080 52 30.9 45% 29.68 1005.2
05 15:53 NW 10 10.00 Overcast FEW044 SCT055 OVC080 51.1 30 52 45 45% 29.67 1005.1
05 14:53 NW 9 10.00 Overcast BKN060 OVC075 51.1 33.1 50% 29.67 1005.0
05 13:53 N 14 10.00 Overcast OVC060 50 34 54% 45 29.67 1004.8
05 12:53 NW 14 10.00 Overcast BKN050 OVC055 48.9 34 56% 44 29.65 1004.4
05 11:53 N 13 10.00 Overcast OVC049 48 34 58% 43 29.64 1004.0
05 10:53 N 13 10.00 Overcast FEW065 OVC080 46.9 35.1 63% 42 29.63 1003.6
05 09:53 N 9 10.00 Overcast OVC065 45 35.1 45 37 68% 41 29.63 1003.5
05 08:53 N 10 10.00 Overcast OVC075 43 35.1 74% 38 29.61 1003.0
05 07:53 NE 6 10.00 Overcast OVC070 41 36 82% 38 29.6 1002.5
05 06:53 NE 7 10.00 Overcast OVC070 39 35.1 86% 35 29.58 1002.0
05 05:53 NE 6 10.00 Overcast SCT060 BKN075 OVC085 39 34 82% 35 29.58 1001.7
05 04:53 N 7 0.00 Unknown Precip OVC046 37.9 35.1 89% 33 29.57 1001.5
05 03:53 N 3 0.00 Overcast BKN055 OVC070 37 35.1 44.1 35.1 93% 29.57 1001.4
05 02:53 E 3 0.00 Overcast OVC100 37 34 89% 29.56 1001.4
05 01:53 NE 9 0.00 Fair CLR 37.9 34 86% 32 29.56 1001.3
05 00:53 N 9 0.00 Partly Cloudy SCT085 37.9 34 86% 32 29.57 1001.5
04 23:53 NE 10 0.00 Partly Cloudy SCT085 39 35.1 86% 33 29.58 1001.9
04 22:53 NE 5 0.00 Fair CLR 39 35.1 86% 36 29.6 1002.4
04 21:53 E 9 10.00 Fair CLR 42.1 37 45 41 82% 37 29.59 1002.3
04 20:53 NE 9 10.00 A Few Clouds FEW075 42.1 37.9 85% 37 29.61 1002.8
04 19:53 NE 10 10.00 Mostly Cloudy BKN080 BKN095 44.1 37.9 79% 39 29.63 1003.5
04 18:53 NE 17 10.00 Mostly Cloudy BKN070 43 37.9 82% 36 29.63 1003.7
04 17:53 N 12 10.00 Fair CLR 43 39 86% 37 29.66 1004.6
04 16:53 N 16 G 28 10.00 Mostly Cloudy SCT060 BKN110 44.1 41 89% 37 29.69 1005.7
04 15:53 NE 12 10.00 Overcast BKN050 OVC060 42.1 39.9 42.1 39 92% 36 29.74 1007.3 0.02
04 14:53 N 20 G 29 10.00 Overcast FEW008 OVC055 41 39 93% 33 29.76 1008.1
04 13:53 N 20 10.00 Overcast OVC065 39.9 37.9 93% 31 29.79 1008.9
04 12:53 N 24 G 32 10.00 Overcast and Breezy SCT007 OVC080 39.9 37 89% 30 29.82 1009.9 0.02
04 11:53 N 21 G 30 10.00 Overcast and Breezy BKN075 OVC110 39 37 93% 30 29.85 1011.0
04 10:53 N 13 10.00 Light Rain SCT005 BKN050 OVC060 39 37.9 96% 32 29.89 1012.3 0.02
04 09:53 N 14 10.00 Overcast FEW005 OVC055 39 37 39 37.9 93% 32 29.91 1013.0 0.02
04 08:53 N 13 10.00 Light Rain BKN047 OVC055 37.9 37 97% 31 29.92 1013.4 0.01
04 07:53 N 9 10.00 Light Rain OVC044 37.9 37 97% 32 29.95 1014.3 0.01
04 06:53 N 8 10.00 Light Rain OVC045 37.9 37 97% 33 29.96 1014.8
04 05:53 N 8 10.00 Light Rain OVC047 37.9 37 97% 33 29.97 1015.2
04 04:53 N 8 0.00 Light Rain OVC043 39 37.9 96% 34 29.99 1015.7
04 03:53 N 7 0.00 Light Rain OVC044 39 37.9 41 39 96% 35 30 1016.1 0.01
04 02:53 N 7 0.00 Light Rain OVC036 39 37.9 96% 35 30.01 1016.4 0.01
04 01:53 N 7 0.00 Light Rain FEW029 FEW033 OVC042 39 37.9 96% 35 30.02 1016.7
04 00:53 N 7 0.00 Light Rain OVC035 39 37.9 96% 35 30.02 1016.8
03 23:53 N 8 0.00 Light Rain OVC040 39.9 37.9 93% 35 30.02 1016.8
03 22:53 N 7 0.00 Light Rain OVC039 39.9 39 97% 36 30.02 1016.8
03 21:53 N 8 10.00 Light Rain OVC033 41 39 48 41 93% 36 30.02 1016.7 0.01 0.01
03 20:53 NE 6 10.00 Light Rain FEW030 BKN042 OVC049 42.1 39 89% 39 30.02 1016.6
03 19:53 NE 6 10.00 Light Rain BKN024 OVC031 44.1 39.9 85% 41 30.02 1016.9
03 18:53 NE 8 10.00 Light Rain BKN029 OVC036 45 37.9 77% 41 30.03 1017.0
03 17:53 NE 12 10.00 Overcast OVC045 46 37 71% 41 30.03 1017.2
03 16:53 NE 12 10.00 Light Rain BKN029 BKN037 OVC046 46.9 37.9 71% 42 30.05 1017.7
03 15:53 NE 7 10.00 Overcast BKN037 OVC050 48 35.1 51.1 46 61% 45 30.06 1018.1
Date Time (akdt) Wind (mph) Vis. (mi.) Weather Sky Cond. Air Dwpt Max. Min. Relative Humidity Wind Chill (°F) Heat Index (°F) altimeter (in) sea level (mb) 1 hr 3 hr 6 hr
6 hour
Temperature (ºF) Pressure Precipitation (in)